Main page
METAR-TAF:

METAR-TAF

Airports :

Park Rapids Municipal Airport (Konshok Field)

Park Rapids, Minnesota, United States

latitude: 46-54-02N, longitude: 095-04-04W, elevation: 1440 ft

Current weather observation

The report was made 1 hour and 16 minutes ago, at 07:53 UTC
Wind 6 mph from the Southeast
Temperature 19°F
Humidity 86%
Pressure 29.95 in. Hg
Visibility: 10 miles
Scattered clouds at a height of 11000 ft

METAR: KPKD 020753Z AUTO 14005KT 10SM SCT110 M07/M09 A2995 RMK AO2 SLP165 T10671089

Time: 03:09 (09:09 UTC)


TAF: missing

Weather observations and forecasts of more than 4000 airports (METAR and TAF reports).

The available stations are represented by yellow and red dots on the map.

Hover mouse over dot to see the name of the station.

Then click to see weather observations and forecasts.

To change the map : click on the green buttons with a black cross to zoom in, on the green button with a dash to zoom out, or on the green arrows for adjacent maps.


METAR-TAF: